Terminal Aerodrome Forecast
Issued by NWS

Home | Current Version | Previous Version | Text Only | Print | Product List | Glossary On
Versions: 1 2 3 4 5 6 7 8 9 10 11 12 13 14 15 16 17 18 19 20
033
FTUS43 KEAX 230520
TAFSTJ
TAF
KSTJ 230520Z 2306/2406 15011KT P6SM SCT250
     FM231400 18012KT P6SM VCTS OVC045CB
      TEMPO 2315/2319 -TSRA BKN035CB
     FM232200 17010KT P6SM BKN025=

USA.gov is the U.S. government's official web portal to all federal, state and local government web resources and services.